NKS1540 KFLL-KLGA
Flight info
| Callsign | NKS1540 |
|---|---|
| Flight time | 1h 51m |
| Altitude | 35000 |
| Route | FEALX2 ETECK GRUBR Y299 SEELO GARIC Q107 HURTS PROUD2 |
| Aircraft | A321/M-SDE3FGHIRWY/LB1 |
Departure
| Time | 2026-05-03 22:51 |
|---|---|
| Airport | Fort Lauderdale Hollywood International Airport (KFLL) |
Arrival
| Time | 2026-05-04 00:42 |
|---|---|
| Airport | LaGuardia Airport (KLGA) |
| Time | Latitude | Longitude | Altitude | Speed | Heading |
|---|---|---|---|---|---|
| 2026-05-03 21:44 | 26.07150 | -80.14731 | 16 ft | 0 kts | 161° |
| 2026-05-03 22:12 | 26.07173 | -80.14794 | 17 ft | 13 kts | 214° |
| 2026-05-03 22:12 | 26.07172 | -80.14800 | 15 ft | 0 kts | 226° |
| 2026-05-03 22:22 | 26.07167 | -80.14806 | 17 ft | 2 kts | 226° |
| 2026-05-03 22:22 | 26.07157 | -80.14817 | 17 ft | 2 kts | 226° |
| 2026-05-03 22:23 | 26.07143 | -80.14833 | 16 ft | 3 kts | 226° |
| 2026-05-03 22:23 | 26.07122 | -80.14858 | 16 ft | 6 kts | 226° |
| 2026-05-03 22:23 | 26.07112 | -80.14869 | 17 ft | 3 kts | 226° |
| 2026-05-03 22:23 | 26.07126 | -80.14885 | 17 ft | 1 kts | 297° |
| 2026-05-03 22:24 | 26.07134 | -80.14903 | 16 ft | 4 kts | 297° |
| 2026-05-03 22:24 | 26.07152 | -80.14943 | 16 ft | 0 kts | 297° |
| 2026-05-03 22:24 | 26.07159 | -80.14957 | 17 ft | 4 kts | 297° |
| 2026-05-03 22:24 | 26.07169 | -80.14988 | 15 ft | 0 kts | 237° |
| 2026-05-03 22:25 | 26.07168 | -80.14989 | 16 ft | 0 kts | 237° |
| 2026-05-03 22:26 | 26.07168 | -80.14990 | 16 ft | 1 kts | 237° |
| 2026-05-03 22:26 | 26.07166 | -80.14994 | 16 ft | 1 kts | 237° |
| 2026-05-03 22:26 | 26.07159 | -80.15004 | 18 ft | 2 kts | 237° |
| 2026-05-03 22:26 | 26.07141 | -80.15021 | 17 ft | 0 kts | 223° |
| 2026-05-03 22:27 | 26.07137 | -80.15024 | 16 ft | 1 kts | 223° |
| 2026-05-03 22:27 | 26.07129 | -80.15033 | 16 ft | 2 kts | 223° |
| 2026-05-03 22:27 | 26.07116 | -80.15047 | 16 ft | 3 kts | 223° |
| 2026-05-03 22:27 | 26.07098 | -80.15065 | 16 ft | 4 kts | 223° |
| 2026-05-03 22:28 | 26.07077 | -80.15088 | 16 ft | 5 kts | 223° |
| 2026-05-03 22:28 | 26.07051 | -80.15114 | 16 ft | 5 kts | 223° |
| 2026-05-03 22:28 | 26.07021 | -80.15128 | 16 ft | 0 kts | 180° |
| 2026-05-03 22:28 | 26.07014 | -80.15128 | 16 ft | 2 kts | 180° |
| 2026-05-03 22:29 | 26.07000 | -80.15128 | 16 ft | 3 kts | 180° |
| 2026-05-03 22:29 | 26.06979 | -80.15129 | 16 ft | 3 kts | 180° |
| 2026-05-03 22:29 | 26.06952 | -80.15129 | 16 ft | 4 kts | 180° |
| 2026-05-03 22:29 | 26.06919 | -80.15129 | 16 ft | 5 kts | 180° |
| 2026-05-03 22:30 | 26.06880 | -80.15130 | 16 ft | 6 kts | 180° |
| 2026-05-03 22:30 | 26.06837 | -80.15130 | 16 ft | 7 kts | 180° |
| 2026-05-03 22:30 | 26.06788 | -80.15130 | 16 ft | 7 kts | 180° |
| 2026-05-03 22:30 | 26.06740 | -80.15131 | 18 ft | 5 kts | 180° |
| 2026-05-03 22:31 | 26.06695 | -80.15174 | 21 ft | 0 kts | 268° |
| 2026-05-03 22:31 | 26.06694 | -80.15181 | 21 ft | 2 kts | 268° |
| 2026-05-03 22:31 | 26.06694 | -80.15205 | 21 ft | 4 kts | 268° |
| 2026-05-03 22:31 | 26.06692 | -80.15257 | 18 ft | 11 kts | 268° |
| 2026-05-03 22:32 | 26.06693 | -80.15365 | 16 ft | 15 kts | 274° |
| 2026-05-03 22:32 | 26.06698 | -80.15479 | 16 ft | 15 kts | 271° |
| 2026-05-03 22:32 | 26.06698 | -80.15553 | 16 ft | 5 kts | 270° |
| 2026-05-03 22:32 | 26.06698 | -80.15555 | 16 ft | 0 kts | 270° |
| 2026-05-03 22:33 | 26.06698 | -80.15570 | 16 ft | 5 kts | 270° |
| 2026-05-03 22:33 | 26.06698 | -80.15623 | 16 ft | 6 kts | 270° |
| 2026-05-03 22:34 | 26.06698 | -80.15641 | 16 ft | 0 kts | 270° |
| 2026-05-03 22:41 | 26.06698 | -80.15645 | 16 ft | 2 kts | 270° |
| 2026-05-03 22:42 | 26.06698 | -80.15665 | 16 ft | 3 kts | 270° |
| 2026-05-03 22:42 | 26.06698 | -80.15683 | 16 ft | 1 kts | 270° |
| 2026-05-03 22:42 | 26.06698 | -80.15689 | 16 ft | 0 kts | 270° |
| 2026-05-03 22:43 | 26.06698 | -80.15690 | 16 ft | 0 kts | 270° |
| 2026-05-03 22:43 | 26.06698 | -80.15696 | 16 ft | 1 kts | 270° |
| 2026-05-03 22:43 | 26.06698 | -80.15710 | 16 ft | 2 kts | 270° |
| 2026-05-03 22:44 | 26.06698 | -80.15732 | 16 ft | 3 kts | 270° |
| 2026-05-03 22:44 | 26.06698 | -80.15760 | 16 ft | 4 kts | 270° |
| 2026-05-03 22:44 | 26.06702 | -80.15796 | 16 ft | 5 kts | 271° |
| 2026-05-03 22:44 | 26.06685 | -80.15813 | 16 ft | 2 kts | 204° |
| 2026-05-03 22:45 | 26.06684 | -80.15814 | 16 ft | 0 kts | 203° |
| 2026-05-03 22:49 | 26.06680 | -80.15816 | 16 ft | 2 kts | 203° |
| 2026-05-03 22:50 | 26.06648 | -80.15825 | 16 ft | 8 kts | 187° |
| 2026-05-03 22:50 | 26.06592 | -80.15777 | 19 ft | 14 kts | 105° |
| 2026-05-03 22:50 | 26.06583 | -80.15610 | 23 ft | 46 kts | 90° |
| 2026-05-03 22:50 | 26.06588 | -80.14967 | 19 ft | 117 kts | 91° |
| 2026-05-03 22:51 | 26.06587 | -80.13845 | 96 ft | 168 kts | 86° |
| 2026-05-03 22:51 | 26.06561 | -80.12472 | 679 ft | 174 kts | 90° |
| 2026-05-03 22:51 | 26.06479 | -80.11125 | 1357 ft | 180 kts | 91° |
| 2026-05-03 22:51 | 26.06421 | -80.09716 | 1789 ft | 186 kts | 90° |
| 2026-05-03 22:52 | 26.06404 | -80.08241 | 2145 ft | 196 kts | 89° |
| 2026-05-03 22:52 | 26.06432 | -80.06663 | 2341 ft | 214 kts | 87° |
| 2026-05-03 22:52 | 26.06506 | -80.04929 | 2463 ft | 237 kts | 86° |
| 2026-05-03 22:52 | 26.06586 | -80.02994 | 2630 ft | 262 kts | 87° |
| 2026-05-03 22:53 | 26.06875 | -80.00967 | 3077 ft | 271 kts | 67° |
| 2026-05-03 22:53 | 26.07901 | -79.99198 | 3673 ft | 275 kts | 48° |
| 2026-05-03 22:53 | 26.09145 | -79.97560 | 4304 ft | 280 kts | 48° |
| 2026-05-03 22:53 | 26.10407 | -79.95872 | 4904 ft | 286 kts | 49° |
| 2026-05-03 22:54 | 26.11679 | -79.94153 | 5509 ft | 290 kts | 49° |
| 2026-05-03 22:54 | 26.12974 | -79.92398 | 6136 ft | 295 kts | 49° |
| 2026-05-03 22:54 | 26.14273 | -79.90636 | 6723 ft | 299 kts | 49° |
| 2026-05-03 22:54 | 26.15608 | -79.88824 | 7316 ft | 302 kts | 49° |
| 2026-05-03 22:55 | 26.16907 | -79.86978 | 7933 ft | 305 kts | 51° |
| 2026-05-03 22:55 | 26.18173 | -79.85065 | 8547 ft | 308 kts | 53° |
| 2026-05-03 22:55 | 26.19427 | -79.83114 | 9164 ft | 311 kts | 53° |
| 2026-05-03 22:55 | 26.20677 | -79.81150 | 9799 ft | 314 kts | 52° |
| 2026-05-03 22:56 | 26.21967 | -79.79133 | 10275 ft | 322 kts | 52° |
| 2026-05-03 22:56 | 26.23312 | -79.77045 | 10391 ft | 343 kts | 52° |
| 2026-05-03 22:56 | 26.24753 | -79.74823 | 10524 ft | 363 kts | 52° |
| 2026-05-03 22:56 | 26.26261 | -79.72508 | 10797 ft | 375 kts | 52° |
| 2026-05-03 22:57 | 26.27805 | -79.70138 | 11287 ft | 380 kts | 52° |
| 2026-05-03 22:57 | 26.29400 | -79.67773 | 11816 ft | 383 kts | 47° |
| 2026-05-03 22:57 | 26.31240 | -79.65613 | 12345 ft | 386 kts | 44° |
| 2026-05-03 22:57 | 26.33115 | -79.63461 | 12884 ft | 389 kts | 44° |
| 2026-05-03 22:58 | 26.35004 | -79.61290 | 13404 ft | 392 kts | 44° |
| 2026-05-03 22:58 | 26.36912 | -79.59094 | 13915 ft | 396 kts | 44° |
| 2026-05-03 22:58 | 26.38836 | -79.56877 | 14375 ft | 399 kts | 44° |
| 2026-05-03 22:58 | 26.40771 | -79.54644 | 14838 ft | 402 kts | 44° |
| 2026-05-03 22:59 | 26.42733 | -79.52384 | 15302 ft | 406 kts | 44° |
| 2026-05-03 22:59 | 26.44675 | -79.50146 | 15754 ft | 409 kts | 43° |
| 2026-05-03 22:59 | 26.46666 | -79.47854 | 15966 ft | 412 kts | 43° |
| 2026-05-03 22:59 | 26.48655 | -79.45561 | 16031 ft | 412 kts | 43° |
| 2026-05-03 23:00 | 26.50643 | -79.43267 | 16020 ft | 413 kts | 44° |
| 2026-05-03 23:00 | 26.52650 | -79.40951 | 16020 ft | 413 kts | 44° |
| 2026-05-03 23:00 | 26.54675 | -79.38681 | 16017 ft | 411 kts | 38° |
| 2026-05-03 23:00 | 26.56951 | -79.36775 | 16021 ft | 407 kts | 28° |
| 2026-05-03 23:01 | 26.59368 | -79.35141 | 16022 ft | 407 kts | 27° |
| 2026-05-03 23:01 | 26.61788 | -79.33503 | 16021 ft | 407 kts | 27° |
| 2026-05-03 23:01 | 26.64206 | -79.31863 | 16019 ft | 407 kts | 28° |
| 2026-05-03 23:01 | 26.66635 | -79.30211 | 16350 ft | 410 kts | 28° |
| 2026-05-03 23:02 | 26.69070 | -79.28551 | 16848 ft | 412 kts | 28° |
| 2026-05-03 23:02 | 26.71538 | -79.26869 | 17316 ft | 416 kts | 27° |
| 2026-05-03 23:02 | 26.74018 | -79.25180 | 17790 ft | 419 kts | 27° |
| 2026-05-03 23:02 | 26.76521 | -79.23475 | 18292 ft | 422 kts | 27° |
| 2026-05-03 23:03 | 26.79040 | -79.21757 | 18652 ft | 427 kts | 27° |
| 2026-05-03 23:03 | 26.81588 | -79.20022 | 19028 ft | 430 kts | 27° |
| 2026-05-03 23:03 | 26.84117 | -79.18300 | 19411 ft | 433 kts | 27° |
| 2026-05-03 23:03 | 26.86730 | -79.16516 | 19791 ft | 437 kts | 27° |
| 2026-05-03 23:04 | 26.89342 | -79.14728 | 20177 ft | 440 kts | 27° |
| 2026-05-03 23:04 | 26.91966 | -79.12928 | 20561 ft | 443 kts | 27° |
| 2026-05-03 23:04 | 26.94599 | -79.11120 | 20947 ft | 447 kts | 27° |
| 2026-05-03 23:04 | 26.97220 | -79.09324 | 21314 ft | 450 kts | 27° |
| 2026-05-03 23:05 | 26.99911 | -79.07480 | 21695 ft | 453 kts | 27° |
| 2026-05-03 23:05 | 27.02611 | -79.05632 | 22044 ft | 456 kts | 27° |
| 2026-05-03 23:05 | 27.05325 | -79.03777 | 22444 ft | 458 kts | 27° |
| 2026-05-03 23:05 | 27.08061 | -79.01904 | 22737 ft | 463 kts | 27° |
| 2026-05-03 23:06 | 27.10825 | -79.00006 | 23047 ft | 467 kts | 27° |
| 2026-05-03 23:06 | 27.15784 | -78.96589 | 23624 ft | 472 kts | 27° |
| 2026-05-03 23:06 | 27.21416 | -78.92706 | 24193 ft | 477 kts | 27° |
| 2026-05-03 23:06 | 27.27106 | -78.88785 | 24770 ft | 481 kts | 27° |
| 2026-05-03 23:07 | 27.32836 | -78.84841 | 25325 ft | 486 kts | 27° |
| 2026-05-03 23:07 | 27.38705 | -78.81021 | 25851 ft | 485 kts | 18° |
| 2026-05-03 23:07 | 27.45072 | -78.79015 | 26377 ft | 473 kts | 360° |
| 2026-05-03 23:07 | 27.51669 | -78.78070 | 26910 ft | 477 kts | 0° |
| 2026-05-03 23:08 | 27.58201 | -78.77109 | 27441 ft | 481 kts | 0° |
| 2026-05-03 23:08 | 27.62677 | -78.76447 | 27837 ft | 484 kts | 360° |
| 2026-05-03 23:08 | 27.71604 | -78.75134 | 28465 ft | 491 kts | 360° |
| 2026-05-03 23:08 | 27.78455 | -78.74125 | 28943 ft | 495 kts | 360° |
| 2026-05-03 23:09 | 27.85303 | -78.73121 | 29414 ft | 499 kts | 360° |
| 2026-05-03 23:09 | 27.92217 | -78.72107 | 29913 ft | 503 kts | 359° |
| 2026-05-03 23:09 | 27.96831 | -78.71435 | 30114 ft | 508 kts | 359° |
| 2026-05-03 23:09 | 28.03866 | -78.70401 | 30581 ft | 510 kts | 359° |
| 2026-05-03 23:10 | 28.10896 | -78.69344 | 31189 ft | 508 kts | 359° |
| 2026-05-03 23:10 | 28.17890 | -78.68297 | 31770 ft | 507 kts | 359° |
| 2026-05-03 23:10 | 28.24890 | -78.67261 | 32361 ft | 506 kts | 358° |
| 2026-05-03 23:10 | 28.31880 | -78.66228 | 32910 ft | 505 kts | 358° |
| 2026-05-03 23:11 | 28.38804 | -78.65198 | 33456 ft | 504 kts | 358° |
| 2026-05-03 23:11 | 28.45803 | -78.64158 | 34014 ft | 503 kts | 357° |
| 2026-05-03 23:11 | 28.52720 | -78.63131 | 34522 ft | 501 kts | 356° |
| 2026-05-03 23:11 | 28.59621 | -78.62110 | 34949 ft | 500 kts | 356° |
| 2026-05-03 23:12 | 28.66532 | -78.61082 | 35090 ft | 500 kts | 356° |
| 2026-05-03 23:12 | 28.80325 | -78.59017 | 35076 ft | 500 kts | 356° |
| 2026-05-03 23:13 | 28.94107 | -78.56957 | 35123 ft | 500 kts | 356° |
| 2026-05-03 23:13 | 29.07899 | -78.54886 | 35071 ft | 500 kts | 356° |
| 2026-05-03 23:14 | 29.21677 | -78.52800 | 35106 ft | 500 kts | 356° |
| 2026-05-03 23:14 | 29.35489 | -78.50719 | 35156 ft | 501 kts | 356° |
| 2026-05-03 23:15 | 29.49291 | -78.48852 | 35101 ft | 486 kts | 346° |
| 2026-05-03 23:15 | 29.55899 | -78.49503 | 35127 ft | 474 kts | 341° |
| 2026-05-03 23:15 | 29.62461 | -78.50236 | 35170 ft | 475 kts | 342° |
| 2026-05-03 23:16 | 29.75599 | -78.51639 | 35106 ft | 472 kts | 342° |
| 2026-05-03 23:16 | 29.82371 | -78.52369 | 35111 ft | 473 kts | 342° |
| 2026-05-03 23:17 | 29.88930 | -78.53083 | 35135 ft | 474 kts | 342° |
| 2026-05-03 23:17 | 29.95508 | -78.53800 | 35144 ft | 475 kts | 342° |
| 2026-05-03 23:18 | 30.02088 | -78.54522 | 35147 ft | 475 kts | 342° |
| 2026-05-03 23:18 | 30.08687 | -78.55241 | 35147 ft | 476 kts | 342° |
| 2026-05-03 23:19 | 30.15323 | -78.55779 | 35147 ft | 488 kts | 351° |
| 2026-05-03 23:19 | 30.22178 | -78.54889 | 35147 ft | 498 kts | 356° |
| 2026-05-03 23:20 | 30.29057 | -78.53891 | 35151 ft | 498 kts | 356° |
| 2026-05-03 23:20 | 30.35929 | -78.52915 | 35151 ft | 498 kts | 356° |
| 2026-05-03 23:21 | 30.42818 | -78.51928 | 35154 ft | 498 kts | 356° |
| 2026-05-03 23:21 | 30.49724 | -78.50847 | 35122 ft | 502 kts | 356° |
| 2026-05-03 23:22 | 30.60095 | -78.49110 | 35132 ft | 502 kts | 356° |
| 2026-05-03 23:22 | 30.66959 | -78.47987 | 35147 ft | 503 kts | 356° |
| 2026-05-03 23:23 | 30.73961 | -78.46865 | 35210 ft | 503 kts | 356° |
| 2026-05-03 23:23 | 30.80852 | -78.45746 | 35112 ft | 497 kts | 356° |
| 2026-05-03 23:24 | 30.87690 | -78.44627 | 35114 ft | 496 kts | 356° |
| 2026-05-03 23:24 | 30.94543 | -78.43511 | 35126 ft | 498 kts | 356° |
| 2026-05-03 23:25 | 31.01369 | -78.42397 | 35172 ft | 499 kts | 357° |
| 2026-05-03 23:25 | 31.08246 | -78.41266 | 35167 ft | 500 kts | 357° |
| 2026-05-03 23:26 | 31.15149 | -78.40134 | 35166 ft | 500 kts | 357° |
| 2026-05-03 23:26 | 31.22045 | -78.39004 | 35166 ft | 501 kts | 357° |
| 2026-05-03 23:27 | 31.28947 | -78.37868 | 35182 ft | 501 kts | 357° |
| 2026-05-03 23:27 | 31.35852 | -78.36733 | 35164 ft | 501 kts | 357° |
| 2026-05-03 23:28 | 31.42762 | -78.35593 | 35165 ft | 501 kts | 358° |
| 2026-05-03 23:28 | 31.49671 | -78.34447 | 35170 ft | 502 kts | 358° |
| 2026-05-03 23:29 | 31.56580 | -78.33307 | 35201 ft | 502 kts | 358° |
| 2026-05-03 23:29 | 31.63461 | -78.32175 | 35141 ft | 499 kts | 358° |
| 2026-05-03 23:30 | 31.70367 | -78.31036 | 35150 ft | 499 kts | 358° |
| 2026-05-03 23:30 | 31.77244 | -78.29890 | 35160 ft | 500 kts | 358° |
| 2026-05-03 23:31 | 31.84143 | -78.28734 | 35188 ft | 500 kts | 358° |
| 2026-05-03 23:31 | 31.91029 | -78.27586 | 35183 ft | 501 kts | 358° |
| 2026-05-03 23:32 | 31.97943 | -78.26440 | 35180 ft | 501 kts | 358° |
| 2026-05-03 23:32 | 32.04806 | -78.25304 | 35180 ft | 501 kts | 357° |
| 2026-05-03 23:33 | 32.11703 | -78.24276 | 35160 ft | 498 kts | 356° |
| 2026-05-03 23:33 | 32.18586 | -78.23317 | 35157 ft | 498 kts | 356° |
| 2026-05-03 23:34 | 32.25475 | -78.22338 | 35161 ft | 499 kts | 356° |
| 2026-05-03 23:34 | 32.32368 | -78.21324 | 35170 ft | 500 kts | 357° |
| 2026-05-03 23:35 | 32.39280 | -78.20296 | 35198 ft | 500 kts | 356° |
| 2026-05-03 23:35 | 32.46188 | -78.19277 | 35190 ft | 500 kts | 356° |
| 2026-05-03 23:36 | 32.53094 | -78.18268 | 35186 ft | 500 kts | 356° |
| 2026-05-03 23:36 | 32.60013 | -78.17265 | 35222 ft | 500 kts | 356° |
| 2026-05-03 23:37 | 32.66909 | -78.16239 | 35154 ft | 498 kts | 356° |
| 2026-05-03 23:37 | 32.73786 | -78.15213 | 35156 ft | 498 kts | 356° |
| 2026-05-03 23:38 | 32.80657 | -78.14197 | 35163 ft | 499 kts | 356° |
| 2026-05-03 23:38 | 32.88074 | -78.13095 | 35171 ft | 499 kts | 356° |
| 2026-05-03 23:39 | 33.01887 | -78.11047 | 35174 ft | 500 kts | 356° |
| 2026-05-03 23:39 | 33.15663 | -78.08996 | 35107 ft | 497 kts | 356° |
| 2026-05-03 23:40 | 33.29336 | -78.06952 | 35159 ft | 496 kts | 356° |
| 2026-05-03 23:40 | 33.43024 | -78.04892 | 35160 ft | 495 kts | 356° |
| 2026-05-03 23:41 | 33.56619 | -78.02853 | 35145 ft | 493 kts | 356° |
| 2026-05-03 23:41 | 33.70210 | -78.00785 | 35090 ft | 487 kts | 356° |
| 2026-05-03 23:42 | 33.83504 | -77.98779 | 35092 ft | 485 kts | 356° |
| 2026-05-03 23:42 | 33.96945 | -77.96724 | 35147 ft | 487 kts | 356° |
| 2026-05-03 23:43 | 34.10364 | -77.94605 | 35115 ft | 486 kts | 356° |
| 2026-05-03 23:43 | 34.23856 | -77.92480 | 35090 ft | 482 kts | 356° |
| 2026-05-03 23:44 | 34.37124 | -77.90387 | 35102 ft | 482 kts | 356° |
| 2026-05-03 23:44 | 34.50373 | -77.88299 | 35127 ft | 482 kts | 356° |
| 2026-05-03 23:45 | 34.63653 | -77.86194 | 35120 ft | 480 kts | 356° |
| 2026-05-03 23:45 | 34.76826 | -77.84097 | 35076 ft | 475 kts | 356° |
| 2026-05-03 23:46 | 34.89948 | -77.81444 | 35144 ft | 488 kts | 6° |
| 2026-05-03 23:46 | 35.03027 | -77.77008 | 35134 ft | 488 kts | 5° |
| 2026-05-03 23:47 | 35.16126 | -77.72574 | 35142 ft | 486 kts | 6° |
| 2026-05-03 23:47 | 35.29001 | -77.68185 | 35095 ft | 483 kts | 6° |
| 2026-05-03 23:48 | 35.41978 | -77.63767 | 35111 ft | 484 kts | 6° |
| 2026-05-03 23:48 | 35.54969 | -77.59310 | 35116 ft | 485 kts | 6° |
| 2026-05-03 23:49 | 35.67937 | -77.54848 | 35071 ft | 480 kts | 6° |
| 2026-05-03 23:49 | 35.80764 | -77.50509 | 35076 ft | 477 kts | 5° |
| 2026-05-03 23:50 | 35.91451 | -77.47077 | 35116 ft | 479 kts | 5° |
| 2026-05-03 23:50 | 36.06515 | -77.42144 | 35121 ft | 478 kts | 5° |
| 2026-05-03 23:51 | 36.19291 | -77.37948 | 35063 ft | 472 kts | 5° |
| 2026-05-03 23:51 | 36.31998 | -77.33767 | 35122 ft | 474 kts | 5° |
| 2026-05-03 23:52 | 36.43402 | -77.29992 | 35125 ft | 475 kts | 5° |
| 2026-05-03 23:52 | 36.48707 | -77.28229 | 35120 ft | 474 kts | 5° |
| 2026-05-03 23:53 | 36.56118 | -77.25772 | 35146 ft | 473 kts | 5° |
| 2026-05-03 23:53 | 36.61391 | -77.24018 | 35091 ft | 470 kts | 5° |
| 2026-05-03 23:54 | 36.67709 | -77.21919 | 35093 ft | 470 kts | 4° |
| 2026-05-03 23:54 | 36.74038 | -77.19818 | 35089 ft | 471 kts | 5° |
| 2026-05-03 23:55 | 36.80375 | -77.17694 | 35115 ft | 472 kts | 5° |
| 2026-05-03 23:55 | 36.86714 | -77.15565 | 35107 ft | 472 kts | 5° |
| 2026-05-03 23:56 | 36.93057 | -77.13444 | 35103 ft | 472 kts | 5° |
| 2026-05-03 23:56 | 36.99398 | -77.11322 | 35102 ft | 472 kts | 5° |
| 2026-05-03 23:57 | 37.05734 | -77.09181 | 35080 ft | 468 kts | 4° |
| 2026-05-03 23:57 | 37.11996 | -77.07056 | 35062 ft | 466 kts | 4° |
| 2026-05-03 23:58 | 37.18128 | -77.04991 | 34471 ft | 466 kts | 11° |
| 2026-05-03 23:58 | 37.21256 | -77.03941 | 35086 ft | 466 kts | 4° |
| 2026-05-03 23:58 | 37.24392 | -77.02889 | 35131 ft | 467 kts | 4° |
| 2026-05-03 23:59 | 37.30674 | -77.00756 | 35081 ft | 467 kts | 4° |
| 2026-05-03 23:59 | 37.36948 | -76.98627 | 35081 ft | 467 kts | 4° |
| 2026-05-04 00:00 | 37.43218 | -76.96504 | 35083 ft | 467 kts | 4° |
| 2026-05-04 00:00 | 37.49367 | -76.93401 | 35118 ft | 486 kts | 18° |
| 2026-05-04 00:01 | 37.55333 | -76.89407 | 35104 ft | 486 kts | 18° |
| 2026-05-04 00:01 | 37.61314 | -76.85422 | 35111 ft | 486 kts | 17° |
| 2026-05-04 00:02 | 37.67295 | -76.81443 | 35100 ft | 486 kts | 17° |
| 2026-05-04 00:02 | 37.73292 | -76.77452 | 35089 ft | 487 kts | 18° |
| 2026-05-04 00:03 | 37.79278 | -76.73438 | 35084 ft | 487 kts | 18° |
| 2026-05-04 00:03 | 37.85267 | -76.69426 | 35079 ft | 487 kts | 18° |
| 2026-05-04 00:04 | 37.91273 | -76.65453 | 35095 ft | 486 kts | 16° |
| 2026-05-04 00:04 | 37.97300 | -76.61662 | 35076 ft | 483 kts | 15° |
| 2026-05-04 00:05 | 38.03324 | -76.57911 | 35072 ft | 483 kts | 16° |
| 2026-05-04 00:05 | 38.09352 | -76.54096 | 35073 ft | 484 kts | 16° |
| 2026-05-04 00:06 | 38.15367 | -76.50252 | 35062 ft | 481 kts | 16° |
| 2026-05-04 00:06 | 38.21338 | -76.46430 | 35050 ft | 481 kts | 16° |
| 2026-05-04 00:07 | 38.27312 | -76.42601 | 35041 ft | 482 kts | 17° |
| 2026-05-04 00:07 | 38.30225 | -76.40396 | 35040 ft | 494 kts | 26° |
| 2026-05-04 00:07 | 38.32975 | -76.37720 | 35083 ft | 498 kts | 28° |
| 2026-05-04 00:08 | 38.38427 | -76.32367 | 34744 ft | 489 kts | 28° |
| 2026-05-04 00:08 | 38.41111 | -76.29745 | 34438 ft | 483 kts | 27° |
| 2026-05-04 00:08 | 38.43809 | -76.27113 | 34136 ft | 479 kts | 27° |
| 2026-05-04 00:09 | 38.46446 | -76.24540 | 33791 ft | 476 kts | 27° |
| 2026-05-04 00:09 | 38.49065 | -76.21982 | 33428 ft | 472 kts | 27° |
| 2026-05-04 00:09 | 38.51628 | -76.19473 | 33088 ft | 469 kts | 27° |
| 2026-05-04 00:09 | 38.54206 | -76.16940 | 32789 ft | 465 kts | 27° |
| 2026-05-04 00:10 | 38.56757 | -76.14426 | 32441 ft | 461 kts | 27° |
| 2026-05-04 00:10 | 38.59293 | -76.11932 | 32100 ft | 459 kts | 27° |
| 2026-05-04 00:10 | 38.61814 | -76.09453 | 31770 ft | 456 kts | 27° |
| 2026-05-04 00:10 | 38.64325 | -76.07002 | 31438 ft | 452 kts | 26° |
| 2026-05-04 00:11 | 38.66838 | -76.04615 | 31109 ft | 447 kts | 26° |
| 2026-05-04 00:11 | 38.69345 | -76.02283 | 30781 ft | 444 kts | 25° |
| 2026-05-04 00:11 | 38.71846 | -75.99976 | 30463 ft | 441 kts | 25° |
| 2026-05-04 00:11 | 38.74326 | -75.97691 | 30190 ft | 437 kts | 25° |
| 2026-05-04 00:12 | 38.76773 | -75.95423 | 29825 ft | 433 kts | 25° |
| 2026-05-04 00:12 | 38.79205 | -75.93154 | 29452 ft | 430 kts | 26° |
| 2026-05-04 00:12 | 38.81606 | -75.90907 | 29083 ft | 427 kts | 26° |
| 2026-05-04 00:12 | 38.83994 | -75.88668 | 28714 ft | 423 kts | 26° |
| 2026-05-04 00:13 | 38.86365 | -75.86441 | 28346 ft | 420 kts | 26° |
| 2026-05-04 00:13 | 38.88718 | -75.84229 | 28000 ft | 417 kts | 26° |
| 2026-05-04 00:13 | 38.91045 | -75.82037 | 27638 ft | 414 kts | 26° |
| 2026-05-04 00:13 | 38.93361 | -75.79854 | 27317 ft | 411 kts | 26° |
| 2026-05-04 00:14 | 38.95658 | -75.77683 | 27056 ft | 406 kts | 26° |
| 2026-05-04 00:14 | 38.97925 | -75.75541 | 27021 ft | 405 kts | 26° |
| 2026-05-04 00:14 | 39.00203 | -75.73393 | 27020 ft | 406 kts | 26° |
| 2026-05-04 00:14 | 39.02450 | -75.71274 | 27022 ft | 406 kts | 26° |
| 2026-05-04 00:15 | 39.04761 | -75.69097 | 27021 ft | 406 kts | 26° |
| 2026-05-04 00:15 | 39.07038 | -75.66945 | 27018 ft | 406 kts | 26° |
| 2026-05-04 00:15 | 39.09316 | -75.64785 | 27018 ft | 406 kts | 26° |
| 2026-05-04 00:15 | 39.11555 | -75.62657 | 26947 ft | 408 kts | 26° |
| 2026-05-04 00:16 | 39.13828 | -75.60494 | 26679 ft | 405 kts | 27° |
| 2026-05-04 00:16 | 39.16112 | -75.58310 | 26389 ft | 401 kts | 27° |
| 2026-05-04 00:16 | 39.18283 | -75.56241 | 26120 ft | 398 kts | 27° |
| 2026-05-04 00:16 | 39.20509 | -75.54125 | 25827 ft | 396 kts | 27° |
| 2026-05-04 00:17 | 39.22722 | -75.52020 | 25560 ft | 394 kts | 27° |
| 2026-05-04 00:17 | 39.24960 | -75.49925 | 25283 ft | 391 kts | 26° |
| 2026-05-04 00:17 | 39.27159 | -75.47945 | 25014 ft | 389 kts | 25° |
| 2026-05-04 00:17 | 39.29388 | -75.45986 | 24746 ft | 387 kts | 25° |
| 2026-05-04 00:18 | 39.31610 | -75.44051 | 24479 ft | 385 kts | 25° |
| 2026-05-04 00:18 | 39.33826 | -75.42118 | 24257 ft | 383 kts | 25° |
| 2026-05-04 00:18 | 39.36027 | -75.40189 | 23994 ft | 381 kts | 26° |
| 2026-05-04 00:18 | 39.38212 | -75.38260 | 23730 ft | 380 kts | 26° |
| 2026-05-04 00:19 | 39.40382 | -75.36329 | 23454 ft | 378 kts | 26° |
| 2026-05-04 00:19 | 39.42549 | -75.34391 | 23137 ft | 377 kts | 27° |
| 2026-05-04 00:19 | 39.44694 | -75.32471 | 22836 ft | 375 kts | 26° |
| 2026-05-04 00:19 | 39.46831 | -75.30560 | 22533 ft | 373 kts | 26° |
| 2026-05-04 00:20 | 39.48958 | -75.28659 | 22221 ft | 371 kts | 26° |
| 2026-05-04 00:20 | 39.51078 | -75.26767 | 21916 ft | 369 kts | 27° |
| 2026-05-04 00:20 | 39.53176 | -75.24853 | 21611 ft | 368 kts | 28° |
| 2026-05-04 00:20 | 39.55244 | -75.22922 | 21297 ft | 365 kts | 28° |
| 2026-05-04 00:21 | 39.57294 | -75.20990 | 20981 ft | 363 kts | 29° |
| 2026-05-04 00:21 | 39.59336 | -75.19062 | 20670 ft | 361 kts | 29° |
| 2026-05-04 00:21 | 39.61355 | -75.17156 | 20362 ft | 359 kts | 29° |
| 2026-05-04 00:21 | 39.63377 | -75.15249 | 20060 ft | 357 kts | 29° |
| 2026-05-04 00:22 | 39.65382 | -75.13358 | 19753 ft | 356 kts | 29° |
| 2026-05-04 00:22 | 39.67376 | -75.11474 | 19458 ft | 354 kts | 29° |
| 2026-05-04 00:22 | 39.69379 | -75.09635 | 19159 ft | 351 kts | 27° |
| 2026-05-04 00:22 | 39.71397 | -75.07874 | 18870 ft | 348 kts | 26° |
| 2026-05-04 00:23 | 39.73430 | -75.06150 | 18588 ft | 350 kts | 26° |
| 2026-05-04 00:23 | 39.75471 | -75.04435 | 18304 ft | 350 kts | 26° |
| 2026-05-04 00:23 | 39.77513 | -75.02713 | 17986 ft | 348 kts | 26° |
| 2026-05-04 00:23 | 39.79533 | -75.00998 | 17644 ft | 346 kts | 26° |
| 2026-05-04 00:24 | 39.81538 | -74.99279 | 17319 ft | 344 kts | 27° |
| 2026-05-04 00:24 | 39.83525 | -74.97565 | 17003 ft | 342 kts | 27° |
| 2026-05-04 00:24 | 39.85498 | -74.95853 | 16687 ft | 340 kts | 27° |
| 2026-05-04 00:24 | 39.87441 | -74.94120 | 16373 ft | 338 kts | 28° |
| 2026-05-04 00:25 | 39.89360 | -74.92373 | 16059 ft | 336 kts | 29° |
| 2026-05-04 00:25 | 39.91264 | -74.90626 | 15751 ft | 334 kts | 29° |
| 2026-05-04 00:25 | 39.93017 | -74.88622 | 15462 ft | 344 kts | 43° |
| 2026-05-04 00:25 | 39.94653 | -74.86274 | 15162 ft | 353 kts | 43° |
| 2026-05-04 00:26 | 39.96308 | -74.83907 | 14845 ft | 353 kts | 43° |
| 2026-05-04 00:26 | 39.97959 | -74.81545 | 14555 ft | 350 kts | 43° |
| 2026-05-04 00:26 | 39.99593 | -74.79208 | 14262 ft | 348 kts | 43° |
| 2026-05-04 00:26 | 40.01216 | -74.76885 | 13972 ft | 345 kts | 43° |
| 2026-05-04 00:27 | 40.02830 | -74.74570 | 13658 ft | 343 kts | 43° |
| 2026-05-04 00:27 | 40.04427 | -74.72280 | 13329 ft | 341 kts | 43° |
| 2026-05-04 00:27 | 40.06011 | -74.70002 | 13013 ft | 338 kts | 43° |
| 2026-05-04 00:27 | 40.07589 | -74.67736 | 12685 ft | 336 kts | 43° |
| 2026-05-04 00:28 | 40.09159 | -74.65488 | 12363 ft | 334 kts | 43° |
| 2026-05-04 00:28 | 40.10707 | -74.63263 | 12059 ft | 328 kts | 43° |
| 2026-05-04 00:28 | 40.12226 | -74.61064 | 11752 ft | 322 kts | 43° |
| 2026-05-04 00:28 | 40.13710 | -74.58914 | 11428 ft | 316 kts | 43° |
| 2026-05-04 00:29 | 40.15171 | -74.56801 | 11124 ft | 310 kts | 42° |
| 2026-05-04 00:29 | 40.16602 | -74.54734 | 10826 ft | 305 kts | 42° |
| 2026-05-04 00:29 | 40.18015 | -74.52695 | 10526 ft | 300 kts | 42° |
| 2026-05-04 00:29 | 40.19407 | -74.50686 | 10231 ft | 296 kts | 42° |
| 2026-05-04 00:30 | 40.20792 | -74.48726 | 10035 ft | 292 kts | 40° |
| 2026-05-04 00:30 | 40.22214 | -74.46867 | 9843 ft | 284 kts | 38° |
| 2026-05-04 00:30 | 40.23623 | -74.45105 | 9638 ft | 276 kts | 37° |
| 2026-05-04 00:30 | 40.25006 | -74.43396 | 9414 ft | 271 kts | 37° |
| 2026-05-04 00:31 | 40.26363 | -74.41718 | 9255 ft | 270 kts | 37° |
| 2026-05-04 00:31 | 40.27734 | -74.40019 | 9088 ft | 270 kts | 37° |
| 2026-05-04 00:31 | 40.29093 | -74.38322 | 8935 ft | 270 kts | 37° |
| 2026-05-04 00:31 | 40.30447 | -74.36618 | 8766 ft | 271 kts | 37° |
| 2026-05-04 00:32 | 40.31803 | -74.34904 | 8634 ft | 270 kts | 37° |
| 2026-05-04 00:32 | 40.33146 | -74.33198 | 8476 ft | 269 kts | 38° |
| 2026-05-04 00:32 | 40.34492 | -74.31487 | 8314 ft | 269 kts | 38° |
| 2026-05-04 00:32 | 40.35833 | -74.29782 | 8161 ft | 269 kts | 38° |
| 2026-05-04 00:33 | 40.37177 | -74.28077 | 7994 ft | 269 kts | 38° |
| 2026-05-04 00:33 | 40.39402 | -74.25254 | 7714 ft | 268 kts | 38° |
| 2026-05-04 00:33 | 40.40738 | -74.23559 | 7505 ft | 264 kts | 38° |
| 2026-05-04 00:34 | 40.42050 | -74.21888 | 7291 ft | 262 kts | 38° |
| 2026-05-04 00:34 | 40.43358 | -74.20227 | 7098 ft | 262 kts | 38° |
| 2026-05-04 00:34 | 40.44668 | -74.18563 | 6887 ft | 260 kts | 38° |
| 2026-05-04 00:34 | 40.45959 | -74.16918 | 6583 ft | 258 kts | 38° |
| 2026-05-04 00:35 | 40.47241 | -74.15284 | 6298 ft | 256 kts | 38° |
| 2026-05-04 00:35 | 40.48517 | -74.13660 | 5980 ft | 254 kts | 38° |
| 2026-05-04 00:35 | 40.49782 | -74.12052 | 5670 ft | 252 kts | 38° |
| 2026-05-04 00:35 | 40.51040 | -74.10453 | 5352 ft | 251 kts | 38° |
| 2026-05-04 00:36 | 40.52329 | -74.09004 | 5046 ft | 244 kts | 27° |
| 2026-05-04 00:36 | 40.53715 | -74.07832 | 4866 ft | 237 kts | 26° |
| 2026-05-04 00:36 | 40.55066 | -74.06690 | 4684 ft | 235 kts | 26° |
| 2026-05-04 00:36 | 40.56450 | -74.05518 | 4499 ft | 235 kts | 27° |
| 2026-05-04 00:37 | 40.57839 | -74.04333 | 4315 ft | 234 kts | 27° |
| 2026-05-04 00:37 | 40.59248 | -74.03133 | 4125 ft | 234 kts | 27° |
| 2026-05-04 00:37 | 40.60590 | -74.01993 | 3874 ft | 231 kts | 26° |
| 2026-05-04 00:37 | 40.61933 | -74.00855 | 3608 ft | 227 kts | 26° |
| 2026-05-04 00:38 | 40.63226 | -73.99758 | 3367 ft | 224 kts | 26° |
| 2026-05-04 00:38 | 40.64550 | -73.98638 | 3223 ft | 224 kts | 26° |
| 2026-05-04 00:38 | 40.65841 | -73.97545 | 3119 ft | 219 kts | 27° |
| 2026-05-04 00:38 | 40.67096 | -73.96468 | 2992 ft | 214 kts | 27° |
| 2026-05-04 00:39 | 40.68306 | -73.95423 | 2751 ft | 211 kts | 27° |
| 2026-05-04 00:39 | 40.69537 | -73.94330 | 2478 ft | 208 kts | 33° |
| 2026-05-04 00:39 | 40.70533 | -73.92978 | 2259 ft | 202 kts | 42° |
| 2026-05-04 00:39 | 40.71434 | -73.91573 | 2139 ft | 199 kts | 48° |
| 2026-05-04 00:40 | 40.72126 | -73.90049 | 1885 ft | 190 kts | 59° |
| 2026-05-04 00:40 | 40.72645 | -73.88504 | 1679 ft | 177 kts | 64° |
| 2026-05-04 00:40 | 40.73057 | -73.87014 | 1461 ft | 169 kts | 68° |
| 2026-05-04 00:40 | 40.73424 | -73.85566 | 1151 ft | 164 kts | 65° |
| 2026-05-04 00:41 | 40.74008 | -73.84328 | 1002 ft | 157 kts | 43° |
| 2026-05-04 00:41 | 40.74832 | -73.83432 | 815 ft | 151 kts | 23° |
| 2026-05-04 00:41 | 40.75811 | -73.83286 | 594 ft | 140 kts | 338° |
| 2026-05-04 00:41 | 40.76475 | -73.84167 | 355 ft | 138 kts | 298° |
| 2026-05-04 00:42 | 40.76979 | -73.85234 | 121 ft | 135 kts | 304° |
| 2026-05-04 00:42 | 40.77467 | -73.86254 | 14 ft | 119 kts | 302° |
| 2026-05-04 00:42 | 40.77808 | -73.86978 | 16 ft | 70 kts | 302° |
| 2026-05-04 00:42 | 40.77977 | -73.87335 | 14 ft | 30 kts | 303° |
| 2026-05-04 00:43 | 40.78057 | -73.87521 | 14 ft | 11 kts | 268° |
| 2026-05-04 00:43 | 40.78042 | -73.87618 | 15 ft | 11 kts | 244° |
| 2026-05-04 00:43 | 40.77983 | -73.87684 | 16 ft | 11 kts | 210° |
| 2026-05-04 00:43 | 40.77925 | -73.87730 | 18 ft | 10 kts | 211° |
| 2026-05-04 00:44 | 40.77870 | -73.87774 | 21 ft | 10 kts | 211° |
| 2026-05-04 00:44 | 40.77806 | -73.87825 | 21 ft | 12 kts | 211° |
| 2026-05-04 00:44 | 40.77725 | -73.87893 | 21 ft | 15 kts | 212° |
| 2026-05-04 00:44 | 40.77623 | -73.87979 | 22 ft | 19 kts | 213° |
| 2026-05-04 00:45 | 40.77506 | -73.88080 | 21 ft | 19 kts | 213° |
| 2026-05-04 00:45 | 40.77416 | -73.88155 | 20 ft | 12 kts | 212° |
| 2026-05-04 00:45 | 40.77344 | -73.88213 | 20 ft | 9 kts | 211° |
| 2026-05-04 00:45 | 40.77290 | -73.88263 | 21 ft | 11 kts | 229° |
| 2026-05-04 00:46 | 40.77289 | -73.88345 | 19 ft | 10 kts | 266° |
| 2026-05-04 00:46 | 40.77284 | -73.88394 | 19 ft | 5 kts | 261° |
| 2026-05-04 00:46 | 40.77279 | -73.88438 | 19 ft | 6 kts | 262° |
| 2026-05-04 00:46 | 40.77304 | -73.88477 | 19 ft | 6 kts | 333° |
| 2026-05-04 00:47 | 40.77319 | -73.88486 | 19 ft | 3 kts | 337° |
| 2026-05-04 00:47 | 40.77331 | -73.88482 | 19 ft | 2 kts | 17° |
| 2026-05-04 00:47 | 40.77333 | -73.88481 | 19 ft | 0 kts | 17° |